Terminal Aerodrome Forecast
Issued by NWS Twin Cities, MN

Home | Current Version | Previous Version | Graphics & Text | Print | Product List | Glossary On
Versions: 1 2 3 4 5 6 7 8 9 10 11 12 13 14 15 16
000
FTUS43 KMPX 302337
TAFEAU
TAF
KEAU 302337Z 0100/0124 VRB03KT P6SM -RA OVC012
     FM010300 29005KT 6SM -RASN BR OVC009
     FM011000 30007KT 4SM -RASN BR OVC006
     FM011800 31008KT P6SM OVC015=

USA.gov is the U.S. government's official web portal to all federal, state and local government web resources and services.